Time;durP1;ratioP1;P1;durP2;ratioP2;P2;SDS_P1;SDS_P2;PMS_P1;PMS_P2;Temp;Humidity;BMP_temperature;BMP_pressure;BME280_temperature;BME280_humidity;BME280_pressure;Samples;Min_cycle;Max_cycle;Signal;HPM_P1;HPM_P2
2021/10/08 00:01:44;;;;;;;32.75;21.52;;;;;;;8.98;90.14;101447.02;1770427;80;20989;-92
2021/10/08 00:04:10;;;;;;;45.75;29.82;;;;;;;8.94;90.25;101452.89;1785216;80;21306;-91
2021/10/08 00:06:36;;;;;;;52.38;34.38;;;;;;;8.90;90.16;101444.76;1785212;80;20986;-92
2021/10/08 00:09:03;;;;;;;54.88;35.25;;;;;;;8.86;90.22;101449.31;1784835;80;20961;-91
2021/10/08 00:11:29;;;;;;;58.83;38.40;;;;;;;8.81;90.16;101446.03;1782901;80;21013;-91
2021/10/08 00:13:55;;;;;;;44.73;31.33;;;;;;;8.78;90.18;101448.81;1754136;82;21459;-91
2021/10/08 00:16:21;;;;;;;41.33;27.42;;;;;;;8.75;89.90;101453.38;1767876;80;21535;-92
2021/10/08 00:18:48;;;;;;;37.08;25.25;;;;;;;8.69;89.98;101455.84;1781346;80;20993;-92
2021/10/08 00:21:15;;;;;;;38.28;23.57;;;;;;;8.66;89.81;101455.98;1785154;80;21041;-91
2021/10/08 00:23:41;;;;;;;32.58;21.73;;;;;;;8.62;89.91;101450.45;1785062;80;21001;-91
2021/10/08 00:26:07;;;;;;;39.92;22.65;;;;;;;8.58;89.93;101453.69;1785177;80;21044;-91
2021/10/08 00:28:33;;;;;;;33.73;21.25;;;;;;;8.51;89.90;101450.96;1762891;80;20972;-91
2021/10/08 00:31:02;;;;;;;25.85;17.37;;;;;;;8.51;89.90;101450.96;1742648;80;21725;-91
2021/10/08 00:33:28;;;;;;;27.22;18.85;;;;;;;8.47;90.00;101455.13;1774805;81;21073;-91
2021/10/08 00:35:54;;;;;;;29.67;18.85;;;;;;;8.42;89.84;101460.15;1738042;81;21467;-92
2021/10/08 00:38:20;;;;;;;26.48;18.42;;;;;;;8.37;89.83;101456.83;1781116;80;20989;-92
2021/10/08 00:40:47;;;;;;;31.55;18.60;;;;;;;8.32;89.80;101458.80;1738873;80;20965;-89
2021/10/08 00:43:21;;;;;;;24.52;16.77;;;;;;;8.27;89.81;101458.17;1735487;82;21091;-90
2021/10/08 00:45:49;;;;;;;26.68;16.82;;;;;;;8.22;89.77;101458.82;1736068;82;21033;-89
2021/10/08 00:48:16;;;;;;;26.68;19.55;;;;;;;8.16;89.86;101460.41;1735917;83;21015;-90
2021/10/08 00:50:46;;;;;;;28.85;19.55;;;;;;;8.13;89.88;101458.80;1749658;80;20974;-90
2021/10/08 00:53:13;;;;;;;32.23;20.72;;;;;;;8.10;89.72;101467.28;1768301;80;20974;-90
2021/10/08 00:55:45;;;;;;;31.45;21.42;;;;;;;8.03;89.63;101478.95;1748544;80;21021;-90
2021/10/08 00:58:14;;;;;;;29.52;18.67;;;;;;;7.97;89.70;101474.84;1785284;80;21486;-89
2021/10/08 01:00:44;;;;;;;29.50;18.23;;;;;;;7.92;89.56;101478.11;1755226;81;20966;-90
2021/10/08 01:03:11;;;;;;;24.35;15.68;;;;;;;7.87;89.73;101478.80;1759358;81;21512;-90
2021/10/08 01:05:39;;;;;;;24.87;15.35;;;;;;;7.82;89.80;101480.75;1759296;81;21068;-90
2021/10/08 01:08:06;;;;;;;21.05;13.00;;;;;;;7.78;89.93;101480.03;1759209;81;21029;-89
2021/10/08 01:10:33;;;;;;;21.48;14.85;;;;;;;7.76;89.89;101479.23;1759382;81;20994;-89
2021/10/08 01:13:01;;;;;;;24.98;16.07;;;;;;;7.71;89.85;101478.12;1770185;80;20984;-89
2021/10/08 01:15:27;;;;;;;22.62;13.58;;;;;;;7.69;89.85;101479.09;1737084;81;21543;-89
2021/10/08 01:17:54;;;;;;;26.35;13.83;;;;;;;7.65;89.92;101479.69;1753385;80;21072;-89
2021/10/08 01:20:23;;;;;;;22.42;13.40;;;;;;;7.62;89.90;101478.50;1770369;80;20961;-89
2021/10/08 01:22:49;;;;;;;21.55;13.35;;;;;;;7.60;89.90;101483.42;1756447;80;20993;-90
2021/10/08 01:25:15;;;;;;;20.60;12.82;;;;;;;7.57;89.80;101483.55;1754351;82;21518;-89
2021/10/08 01:27:43;;;;;;;26.17;15.63;;;;;;;7.54;89.80;101486.33;1765827;80;21487;-90
2021/10/08 01:30:11;;;;;;;20.70;12.85;;;;;;;7.53;89.95;101488.08;1759241;80;21547;-89
2021/10/08 01:32:37;;;;;;;20.85;14.40;;;;;;;7.51;89.99;101478.11;1754898;80;20959;-90
2021/10/08 01:35:05;;;;;;;24.87;13.13;;;;;;;7.47;89.61;101487.04;1785227;80;21037;-89
2021/10/08 01:37:31;;;;;;;26.27;14.93;;;;;;;7.45;89.80;101480.98;1785021;80;20990;-89
2021/10/08 01:39:57;;;;;;;28.02;14.78;;;;;;;7.41;89.71;101485.51;1785243;80;21009;-88
2021/10/08 01:42:23;;;;;;;25.55;13.22;;;;;;;7.39;89.81;101488.64;1737037;80;21458;-89
2021/10/08 01:44:49;;;;;;;26.15;15.70;;;;;;;7.37;89.71;101489.62;1736014;83;21013;-89
2021/10/08 01:47:15;;;;;;;24.90;13.35;;;;;;;7.34;89.70;101491.05;1735995;82;20966;-89
2021/10/08 01:49:41;;;;;;;30.55;14.75;;;;;;;7.30;89.67;101487.70;1736148;82;21017;-90
2021/10/08 01:52:08;;;;;;;22.17;12.58;;;;;;;7.28;89.61;101488.23;1762737;80;20973;-89
2021/10/08 01:54:34;;;;;;;24.23;12.95;;;;;;;7.27;89.69;101493.07;1717171;83;21017;-89
2021/10/08 01:57:00;;;;;;;20.37;12.75;;;;;;;7.25;89.71;101490.98;1776325;80;20961;-89
2021/10/08 01:59:26;;;;;;;19.45;12.18;;;;;;;7.23;89.70;101491.49;1785617;80;20981;-89
2021/10/08 02:01:52;;;;;;;23.98;14.20;;;;;;;7.19;89.78;101490.77;1763638;80;21503;-89
2021/10/08 02:04:18;;;;;;;26.17;13.68;;;;;;;7.17;89.77;101491.30;1727093;82;21492;-89
2021/10/08 02:06:44;;;;;;;24.05;12.80;;;;;;;7.14;89.87;101494.05;1754758;80;21008;-89
2021/10/08 02:09:13;;;;;;;22.65;13.15;;;;;;;7.11;89.73;101491.97;1761017;80;21510;-89
2021/10/08 02:11:39;;;;;;;20.23;12.90;;;;;;;7.09;89.88;101495.14;1752491;80;21009;-89
2021/10/08 02:14:05;;;;;;;22.22;12.80;;;;;;;7.07;89.90;101496.49;1743338;80;21037;-89
2021/10/08 02:16:31;;;;;;;17.82;11.88;;;;;;;7.03;89.92;101498.39;1763150;80;21514;-89
2021/10/08 02:18:57;;;;;;;19.12;12.23;;;;;;;6.99;89.75;101499.42;1735913;82;21103;-90
2021/10/08 02:21:24;;;;;;;20.68;12.82;;;;;;;6.96;89.80;101503.48;1768973;80;20929;-89
2021/10/08 02:23:51;;;;;;;24.90;13.22;;;;;;;6.93;89.90;101504.06;1785105;80;21503;-89
2021/10/08 02:26:18;;;;;;;22.50;12.78;;;;;;;6.90;89.98;101506.34;1767257;80;21045;-90
2021/10/08 02:28:44;;;;;;;20.30;13.88;;;;;;;6.88;89.95;101505.56;1735773;83;21005;-89
2021/10/08 02:31:11;;;;;;;20.68;12.90;;;;;;;6.88;89.97;101508.19;1749672;80;21080;-90
2021/10/08 02:33:37;;;;;;;23.77;13.15;;;;;;;6.84;89.81;101513.59;1749636;80;21004;-89
2021/10/08 02:36:06;;;;;;;21.93;12.30;;;;;;;6.79;89.78;101513.78;1763684;80;20950;-89
2021/10/08 02:38:34;;;;;;;21.82;14.33;;;;;;;6.76;89.79;101516.52;1753993;81;21068;-89
2021/10/08 02:41:00;;;;;;;26.95;14.07;;;;;;;6.72;89.87;101516.23;1736379;82;20997;-89
2021/10/08 02:43:26;;;;;;;23.05;15.30;;;;;;;6.69;89.60;101520.28;1753882;80;21498;-89
2021/10/08 02:45:53;;;;;;;27.90;13.95;;;;;;;6.66;89.68;101519.09;1757729;80;21005;-90
2021/10/08 02:48:19;;;;;;;26.75;15.55;;;;;;;6.60;89.45;101520.16;1753995;82;21057;-89
2021/10/08 02:50:45;;;;;;;26.87;14.45;;;;;;;6.56;89.65;101519.88;1757903;80;21498;-90
2021/10/08 02:53:12;;;;;;;26.52;14.87;;;;;;;6.52;89.53;101520.91;1784691;80;21005;-89
2021/10/08 02:55:39;;;;;;;20.80;13.50;;;;;;;6.49;89.66;101521.87;1757941;80;20985;-89
2021/10/08 02:58:05;;;;;;;23.92;13.05;;;;;;;6.48;89.70;101522.80;1735900;83;21013;-89
2021/10/08 03:00:31;;;;;;;22.40;13.45;;;;;;;6.47;89.69;101522.84;1742485;80;21092;-89
2021/10/08 03:02:57;;;;;;;23.38;13.35;;;;;;;6.44;89.57;101524.25;1766246;80;20969;-89
2021/10/08 03:05:24;;;;;;;21.10;13.55;;;;;;;6.42;89.78;101534.81;1766048;80;21072;-89
2021/10/08 03:07:49;;;;;;;26.70;13.20;;;;;;;6.41;89.83;101535.70;1740725;80;21016;-89
2021/10/08 03:10:17;;;;;;;22.75;13.13;;;;;;;6.40;89.79;101533.16;1776255;80;20990;-89
2021/10/08 03:12:45;;;;;;;21.35;11.80;;;;;;;6.37;89.60;101541.97;1781546;80;21002;-89
2021/10/08 03:15:11;;;;;;;26.15;13.32;;;;;;;6.34;89.43;101539.46;1785107;80;20997;-89
2021/10/08 03:17:37;;;;;;;21.97;12.53;;;;;;;6.31;89.47;101540.88;1727229;80;21455;-90
2021/10/08 03:20:06;;;;;;;26.87;13.48;;;;;;;6.27;89.57;101544.06;1767884;80;21053;-90
2021/10/08 03:22:32;;;;;;;24.92;13.03;;;;;;;6.23;89.42;101541.16;1781459;80;20977;-89
2021/10/08 03:24:58;;;;;;;23.45;13.25;;;;;;;6.20;89.33;101543.03;1785192;80;21036;-89
2021/10/08 03:27:24;;;;;;;19.77;12.07;;;;;;;6.16;89.20;101545.37;1762679;80;21079;-89
2021/10/08 03:29:51;;;;;;;23.40;12.68;;;;;;;6.10;89.13;101535.95;1779894;80;21436;-89
2021/10/08 03:32:17;;;;;;;20.37;12.55;;;;;;;6.07;89.17;101545.22;1764923;80;20976;-90
2021/10/08 03:34:43;;;;;;;25.55;13.60;;;;;;;6.03;89.31;101546.24;1779721;80;21496;-89
2021/10/08 03:37:13;;;;;;;25.68;12.63;;;;;;;6.00;89.41;101541.11;1717154;83;21052;-89
2021/10/08 03:39:40;;;;;;;25.40;12.40;;;;;;;5.97;89.58;101539.90;1735633;82;21022;-89
2021/10/08 03:42:06;;;;;;;24.77;12.70;;;;;;;5.95;89.70;101542.55;1772213;80;21013;-89
2021/10/08 03:44:39;;;;;;;21.48;12.73;;;;;;;5.93;89.73;101539.61;1785151;80;21263;-89
2021/10/08 03:47:03;;;;;;;21.97;12.25;;;;;;;5.91;89.81;101540.92;1782152;80;21029;-89
2021/10/08 03:49:29;;;;;;;23.22;12.98;;;;;;;5.90;89.52;101547.54;1758700;80;21028;-89
2021/10/08 03:51:55;;;;;;;22.80;11.35;;;;;;;5.87;89.64;101547.18;1758244;80;21001;-89
2021/10/08 03:54:23;;;;;;;24.95;13.25;;;;;;;5.86;89.73;101552.02;1736026;82;20997;-90
2021/10/08 03:56:49;;;;;;;29.05;13.40;;;;;;;5.84;89.70;101552.06;1736048;80;21036;-89
2021/10/08 03:59:16;;;;;;;21.02;11.83;;;;;;;5.82;89.67;101554.32;1736094;82;21041;-89
2021/10/08 04:01:42;;;;;;;20.95;12.37;;;;;;;5.78;89.69;101552.72;1745991;80;21004;-89
2021/10/08 04:04:08;;;;;;;23.55;12.70;;;;;;;5.76;89.75;101550.59;1745189;80;20989;-89
2021/10/08 04:06:35;;;;;;;21.12;12.60;;;;;;;5.74;89.46;101555.05;1735761;83;21032;-89
2021/10/08 04:09:07;;;;;;;26.30;13.30;;;;;;;5.70;89.48;101549.52;1735966;82;20997;-90
2021/10/08 04:11:34;;;;;;;22.75;13.15;;;;;;;5.69;89.75;101558.25;1716986;83;20997;-89
2021/10/08 04:14:00;;;;;;;22.60;12.95;;;;;;;5.66;89.69;101556.61;1736038;83;21056;-89
2021/10/08 04:16:26;;;;;;;22.02;12.58;;;;;;;5.62;89.43;101551.05;1736089;83;21028;-90
2021/10/08 04:18:52;;;;;;;24.02;13.08;;;;;;;5.59;89.52;101557.69;1735989;83;21024;-89
2021/10/08 04:21:18;;;;;;;20.80;11.88;;;;;;;5.56;89.51;101561.29;1736167;82;20949;-89
2021/10/08 04:23:45;;;;;;;22.85;11.97;;;;;;;5.52;89.42;101559.66;1752011;80;21025;-89
2021/10/08 04:26:11;;;;;;;24.02;13.45;;;;;;;5.48;89.43;101561.12;1745548;82;21077;-90
2021/10/08 04:28:37;;;;;;;23.52;12.78;;;;;;;5.44;89.39;101560.36;1745301;82;21479;-89
2021/10/08 04:31:04;;;;;;;23.67;12.75;;;;;;;5.40;89.36;101566.61;1745618;82;21033;-89
2021/10/08 04:33:30;;;;;;;20.90;13.13;;;;;;;5.35;89.25;101571.97;1745327;82;21045;-89
2021/10/08 04:36:02;;;;;;;20.48;12.78;;;;;;;5.32;89.37;101567.28;1745452;82;21038;-89
2021/10/08 04:38:27;;;;;;;21.15;11.28;;;;;;;5.29;89.27;101571.30;1743780;82;21018;-89
2021/10/08 04:40:54;;;;;;;19.92;12.47;;;;;;;5.26;89.27;101575.32;1745661;82;21038;-89
2021/10/08 04:43:20;;;;;;;19.85;10.43;;;;;;;5.22;89.25;101573.70;1745476;82;21052;-89
2021/10/08 04:45:47;;;;;;;24.45;11.12;;;;;;;5.21;89.12;101585.09;1745404;82;21049;-89
2021/10/08 04:48:13;;;;;;;21.62;12.37;;;;;;;5.16;89.04;101578.66;1745386;82;21049;-90
2021/10/08 04:50:39;;;;;;;20.25;12.20;;;;;;;5.12;89.05;101578.36;1745467;82;21579;-89
2021/10/08 04:53:17;;;;;;;15.38;10.75;;;;;;;5.07;88.99;101575.89;1745438;82;21005;-89
2021/10/08 04:55:44;;;;;;;20.17;13.43;;;;;;;5.03;89.13;101586.02;1745294;82;21088;-90
2021/10/08 04:58:10;;;;;;;25.70;13.80;;;;;;;5.00;89.25;101583.52;1745292;82;20998;-90
2021/10/08 05:00:37;;;;;;;32.33;15.60;;;;;;;4.86;89.27;101569.52;1745609;82;20997;-89
2021/10/08 05:03:13;;;;;;;27.60;15.50;;;;;;;4.95;89.19;101589.33;1745397;82;20990;-90
2021/10/08 05:05:47;;;;;;;27.07;14.73;;;;;;;4.93;89.11;101589.81;1740437;82;21572;-90
2021/10/08 05:08:10;;;;;;;23.35;14.38;;;;;;;4.89;88.97;101586.89;1744642;82;21053;-89
2021/10/08 05:10:36;;;;;;;26.60;13.83;;;;;;;4.85;88.82;101587.88;1745340;82;21508;-89
2021/10/08 05:13:02;;;;;;;27.52;13.98;;;;;;;4.81;88.87;101584.95;1745632;82;21025;-90
2021/10/08 05:15:28;;;;;;;24.82;13.50;;;;;;;4.77;88.89;101585.92;1745438;82;21476;-90
2021/10/08 05:17:54;;;;;;;24.40;12.78;;;;;;;4.75;89.11;101587.73;1745340;82;21471;-90
2021/10/08 05:20:21;;;;;;;22.48;13.28;;;;;;;4.73;89.28;101583.84;1745164;82;21113;-89
2021/10/08 05:22:47;;;;;;;28.17;14.90;;;;;;;4.73;89.34;101581.69;1779847;80;20988;-89
2021/10/08 05:25:13;;;;;;;36.73;19.90;;;;;;;4.70;89.41;101583.51;1785113;80;21504;-89
2021/10/08 05:27:39;;;;;;;42.90;23.40;;;;;;;4.69;89.27;101588.30;1784998;80;20981;-90
2021/10/08 05:30:06;;;;;;;33.02;18.67;;;;;;;4.68;89.40;101593.14;1785133;80;21021;-89
2021/10/08 05:32:50;;;;;;;;;;;;;;;;;;;;;
2021/10/08 05:35:07;;;;;;;27.62;14.83;;;;;;;4.67;89.72;101600.59;1763830;80;21496;-90
2021/10/08 05:37:33;;;;;;;36.58;19.27;;;;;;;4.67;89.42;101604.93;1757348;80;21145;-91
2021/10/08 05:39:59;;;;;;;30.12;18.02;;;;;;;4.67;89.53;101603.20;1785221;80;21005;-91
2021/10/08 05:42:25;;;;;;;34.05;19.80;;;;;;;4.68;89.62;101601.44;1784948;80;21006;-90
2021/10/08 05:44:51;;;;;;;28.10;16.05;;;;;;;4.67;89.53;101604.51;1785249;80;21005;-90
2021/10/08 05:47:18;;;;;;;25.27;15.10;;;;;;;4.68;89.77;101609.28;1784984;80;21514;-91
2021/10/08 05:49:44;;;;;;;23.98;14.15;;;;;;;4.69;89.82;101607.06;1785127;80;21001;-90
2021/10/08 05:52:10;;;;;;;23.60;12.78;;;;;;;4.70;89.83;101617.50;1784848;80;21492;-91
2021/10/08 05:54:36;;;;;;;20.57;12.70;;;;;;;4.70;89.96;101620.53;1785183;80;21029;-91
2021/10/08 05:57:04;;;;;;;19.15;12.23;;;;;;;4.70;89.81;101618.80;1784937;80;21009;-91
2021/10/08 05:59:30;;;;;;;23.12;12.60;;;;;;;4.70;90.27;101624.03;1784873;80;21455;-91
2021/10/08 06:01:56;;;;;;;20.65;12.55;;;;;;;4.73;90.22;101623.52;1784924;80;21128;-90
2021/10/08 06:04:22;;;;;;;20.97;12.55;;;;;;;4.74;90.30;101616.08;1785069;80;20997;-90
2021/10/08 06:06:47;;;;;;;25.37;13.35;;;;;;;4.74;90.17;101628.73;1784905;80;21128;-91
2021/10/08 06:09:13;;;;;;;24.70;12.65;;;;;;;4.76;90.36;101630.83;1785107;80;20993;-90
2021/10/08 06:11:39;;;;;;;24.35;13.60;;;;;;;4.79;90.33;101637.74;1784802;80;20969;-90
2021/10/08 06:14:05;;;;;;;23.87;12.65;;;;;;;4.82;90.44;101646.81;1785035;80;21443;-90
2021/10/08 06:16:31;;;;;;;21.10;12.25;;;;;;;4.84;90.53;101645.88;1785089;80;21032;-90
2021/10/08 06:18:58;;;;;;;19.75;12.55;;;;;;;4.87;90.77;101642.30;1784801;80;21519;-90
2021/10/08 06:21:25;;;;;;;20.35;13.10;;;;;;;4.89;90.77;101642.66;1784734;80;21013;-91
2021/10/08 06:23:51;;;;;;;24.92;13.60;;;;;;;4.92;90.82;101640.42;1756466;80;21013;-91
2021/10/08 06:26:17;;;;;;;23.35;13.30;;;;;;;4.94;90.85;101641.25;1761901;80;20960;-90
2021/10/08 06:28:43;;;;;;;24.10;13.75;;;;;;;4.98;91.03;101639.40;1753906;81;21422;-91
2021/10/08 06:31:09;;;;;;;24.15;13.05;;;;;;;5.01;90.89;101640.16;1754104;82;20986;-91
2021/10/08 06:33:35;;;;;;;22.00;15.00;;;;;;;5.05;91.29;101639.63;1753952;82;21009;-90
2021/10/08 06:36:02;;;;;;;23.62;12.50;;;;;;;5.07;91.08;101640.00;1754063;81;20971;-91
2021/10/08 06:38:28;;;;;;;23.80;13.75;;;;;;;5.09;91.04;101652.56;1754108;81;20975;-90
2021/10/08 06:40:54;;;;;;;24.63;13.93;;;;;;;5.12;91.01;101651.17;1754040;81;21070;-91
2021/10/08 06:43:20;;;;;;;20.82;13.75;;;;;;;5.15;90.94;101651.54;1754030;81;21564;-91
2021/10/08 06:45:46;;;;;;;27.25;15.20;;;;;;;5.17;90.88;101653.22;1754112;82;21489;-90
2021/10/08 06:48:12;;;;;;;26.85;13.50;;;;;;;5.20;90.99;101651.39;1754020;82;20959;-90
2021/10/08 06:50:38;;;;;;;24.80;14.07;;;;;;;5.23;90.92;101652.61;1753958;81;21051;-91
2021/10/08 06:53:04;;;;;;;22.80;14.10;;;;;;;5.27;91.14;101654.27;1753957;82;21477;-90
2021/10/08 06:55:31;;;;;;;21.77;15.32;;;;;;;5.31;91.13;101659.34;1754169;81;21008;-90
2021/10/08 06:57:56;;;;;;;25.85;15.20;;;;;;;5.34;91.10;101658.41;1754008;82;21466;-90
2021/10/08 07:00:23;;;;;;;30.97;14.90;;;;;;;5.36;90.99;101664.02;1726826;82;21003;-90
2021/10/08 07:02:55;;;;;;;24.20;15.78;;;;;;;5.40;91.00;101667.39;1753676;82;21074;-90
2021/10/08 07:05:23;;;;;;;32.63;14.07;;;;;;;5.43;91.09;101668.61;1754335;82;21540;-90
2021/10/08 07:07:51;;;;;;;25.82;14.83;;;;;;;5.48;91.01;101673.70;1758853;80;21518;-90
2021/10/08 07:10:17;;;;;;;24.12;13.58;;;;;;;5.51;90.94;101677.08;1785047;80;20985;-90
2021/10/08 07:12:43;;;;;;;23.65;14.13;;;;;;;5.56;90.99;101673.00;1784949;80;21048;-91
2021/10/08 07:15:18;;;;;;;27.75;14.07;;;;;;;5.60;91.05;101679.88;1785047;80;21001;-91
2021/10/08 07:17:51;;;;;;;25.20;13.85;;;;;;;5.64;91.15;101682.34;1756563;80;21483;-91
2021/10/08 07:20:24;;;;;;;24.92;14.15;;;;;;;5.69;90.85;101684.81;1785002;80;21028;-92
2021/10/08 07:22:51;;;;;;;21.48;13.08;;;;;;;5.74;90.86;101689.47;1785000;80;21134;-91
2021/10/08 07:25:18;;;;;;;23.38;12.58;;;;;;;5.79;90.76;101691.94;1785208;80;21583;-90
2021/10/08 07:27:46;;;;;;;24.00;14.38;;;;;;;5.84;90.45;101703.14;1784827;80;21037;-91
2021/10/08 07:30:13;;;;;;;26.33;13.53;;;;;;;5.88;90.24;101704.76;1785090;80;21095;-92
2021/10/08 07:32:41;;;;;;;21.80;14.33;;;;;;;5.94;90.03;101707.68;1784970;80;21027;-92
2021/10/08 07:35:09;;;;;;;23.50;13.62;;;;;;;5.99;90.01;101704.45;1784694;80;21072;-91
2021/10/08 07:37:35;;;;;;;20.75;12.95;;;;;;;6.04;89.81;101706.02;1784824;80;21459;-92
2021/10/08 07:40:02;;;;;;;23.07;13.58;;;;;;;6.08;89.52;101707.63;1785255;80;20992;-91
2021/10/08 07:42:28;;;;;;;24.80;13.08;;;;;;;6.12;89.53;101708.42;1784881;80;21028;-91
2021/10/08 07:44:54;;;;;;;25.68;14.40;;;;;;;6.17;89.46;101709.57;1784947;80;21009;-92
2021/10/08 07:47:21;;;;;;;29.32;15.60;;;;;;;6.24;89.47;101711.08;1785206;80;21574;-93
2021/10/08 07:49:47;;;;;;;27.93;12.93;;;;;;;6.32;89.43;101715.64;1785365;80;20982;-92
2021/10/08 07:52:13;;;;;;;23.00;12.93;;;;;;;6.41;89.44;101711.37;1785300;80;20981;-91
2021/10/08 07:54:40;;;;;;;24.77;13.62;;;;;;;6.49;89.05;101712.00;1785113;80;21041;-92
2021/10/08 07:57:06;;;;;;;20.02;12.40;;;;;;;6.57;88.83;101717.83;1785148;80;21016;-93
2021/10/08 07:59:33;;;;;;;22.45;12.85;;;;;;;6.64;88.40;101712.38;1785220;80;20938;-93
2021/10/08 08:01:59;;;;;;;22.98;13.32;;;;;;;6.69;88.18;101713.94;1785292;80;20993;-92
2021/10/08 08:04:25;;;;;;;21.55;12.78;;;;;;;6.75;88.50;101717.67;1785303;80;20958;-92
2021/10/08 08:06:51;;;;;;;22.25;12.75;;;;;;;6.80;88.21;101710.48;1784983;80;21037;-96
2021/10/08 08:09:17;;;;;;;24.40;13.20;;;;;;;6.47;88.40;101645.62;1785222;80;20990;-93
2021/10/08 08:11:43;;;;;;;22.32;12.65;;;;;;;6.97;88.02;101709.03;1785143;80;20989;-93
2021/10/08 08:14:09;;;;;;;28.42;14.53;;;;;;;7.00;87.74;101703.21;1785173;80;21028;-94
2021/10/08 08:16:36;;;;;;;20.30;12.15;;;;;;;7.14;87.39;101722.86;1785029;80;20978;-94
2021/10/08 08:19:02;;;;;;;21.62;12.68;;;;;;;7.23;87.41;101722.53;1785209;80;21068;-95
2021/10/08 08:21:28;;;;;;;20.37;12.53;;;;;;;7.27;87.07;101721.06;1785116;80;21073;-93
2021/10/08 08:23:54;;;;;;;26.50;14.87;;;;;;;7.35;87.43;101718.61;1785195;80;21026;-93
2021/10/08 08:26:20;;;;;;;22.35;13.20;;;;;;;7.40;87.20;101714.03;1785226;80;21005;-92
2021/10/08 08:28:47;;;;;;;25.97;13.60;;;;;;;7.50;87.56;101715.39;1785102;80;21472;-93
2021/10/08 08:31:13;;;;;;;27.85;12.70;;;;;;;7.58;87.10;101711.18;1784996;80;21006;-93
2021/10/08 08:33:39;;;;;;;23.38;13.32;;;;;;;7.67;86.96;101720.03;1784867;80;21029;-94
2021/10/08 08:36:06;;;;;;;25.08;13.58;;;;;;;7.74;86.88;101711.00;1785078;80;20986;-93
2021/10/08 08:38:32;;;;;;;25.85;13.53;;;;;;;7.80;86.32;101719.95;1784870;80;21008;-93
2021/10/08 08:41:00;;;;;;;28.25;12.68;;;;;;;7.85;86.33;101719.77;1785031;80;20981;-92
2021/10/08 08:43:28;;;;;;;22.65;12.53;;;;;;;7.90;85.82;101712.11;1785003;80;21033;-93
2021/10/08 08:45:58;;;;;;;25.97;13.18;;;;;;;7.94;85.52;101711.06;1785057;80;20998;-92
2021/10/08 08:48:24;;;;;;;19.80;13.35;;;;;;;8.01;85.91;101714.30;1756745;80;21044;-93
2021/10/08 08:50:51;;;;;;;26.05;13.45;;;;;;;8.08;85.56;101712.28;1785210;80;20993;-93
2021/10/08 08:53:23;;;;;;;25.55;13.68;;;;;;;8.20;85.97;101717.06;1785095;80;21515;-93
2021/10/08 08:55:51;;;;;;;24.95;13.80;;;;;;;8.32;86.53;101715.22;1784887;80;21069;-95
2021/10/08 08:58:21;;;;;;;20.17;13.40;;;;;;;8.43;85.90;101716.15;1785152;80;20973;-92
2021/10/08 09:01:00;;;;;;;25.80;13.62;;;;;;;8.55;85.49;101716.08;1784937;80;20993;-93
2021/10/08 09:03:27;;;;;;;23.52;13.70;;;;;;;8.62;85.16;101720.16;1784817;80;21009;-94
2021/10/08 09:05:53;;;;;;;22.75;12.45;;;;;;;8.67;84.87;101715.09;1784964;80;21072;-94
2021/10/08 09:08:19;;;;;;;23.38;13.60;;;;;;;8.74;84.59;101714.38;1782124;80;20969;-96
2021/10/08 09:10:48;;;;;;;26.27;12.60;;;;;;;8.82;84.97;101714.07;1785043;80;21032;-94
2021/10/08 09:13:17;;;;;;;31.68;12.37;;;;;;;8.89;84.26;101711.09;1769629;80;20979;-93
2021/10/08 09:15:56;;;;;;;21.12;13.28;;;;;;;8.97;84.47;101712.06;1754099;82;21461;-96
2021/10/08 09:18:26;;;;;;;28.17;13.40;;;;;;;9.06;83.46;101712.13;1727167;80;21046;-93
2021/10/08 09:21:15;;;;;;;18.35;10.75;;;;;;;9.14;83.76;101712.16;1765749;80;21369;-94
2021/10/08 09:23:49;;;;;;;24.72;12.73;;;;;;;9.21;83.42;101713.21;1777102;80;21076;-93
2021/10/08 09:26:21;;;;;;;21.30;11.70;;;;;;;9.33;82.28;101713.52;1759779;80;21115;-93
2021/10/08 09:29:02;;;;;;;20.82;12.30;;;;;;;9.43;82.89;101718.37;1755965;81;21001;-93
2021/10/08 09:31:42;;;;;;;23.85;11.75;;;;;;;9.55;82.22;101705.97;1742714;81;20975;-93
2021/10/08 09:34:27;;;;;;;25.23;11.75;;;;;;;9.67;82.40;101702.73;1759110;81;21028;-94
2021/10/08 09:37:03;;;;;;;19.60;12.43;;;;;;;9.80;82.18;101701.23;1741036;82;21314;-93
2021/10/08 09:39:38;;;;;;;21.45;11.60;;;;;;;9.91;81.65;101713.07;1744804;82;21081;-96
2021/10/08 09:42:11;;;;;;;27.05;12.25;;;;;;;9.97;80.72;101707.04;1745024;82;21041;-93
2021/10/08 09:44:49;;;;;;;18.70;11.48;;;;;;;10.05;80.74;101708.83;1744837;82;21069;-95
2021/10/08 09:47:19;;;;;;;20.60;11.65;;;;;;;10.12;80.79;101711.17;1744883;82;21041;-94
2021/10/08 09:49:49;;;;;;;25.80;13.40;;;;;;;10.22;80.39;101713.75;1745205;82;21093;-95
2021/10/08 09:52:27;;;;;;;22.10;10.93;;;;;;;10.30;79.96;101718.23;1744979;82;21021;-95
2021/10/08 09:54:57;;;;;;;20.95;13.65;;;;;;;10.37;79.61;101711.71;1743628;82;21026;-94
2021/10/08 09:57:24;;;;;;;;;;;;;;;10.45;79.45;101709.53;1720321;82;21009;-93
2021/10/08 09:59:52;;;;;;;22.70;11.00;;;;;;;10.49;79.11;101708.44;1744899;82;20158;-93
2021/10/08 10:02:21;;;;;;;21.02;11.03;;;;;;;10.52;79.22;101704.80;1744875;82;21280;-94
2021/10/08 10:04:59;;;;;;;21.20;10.78;;;;;;;10.57;80.12;101710.71;1745361;82;21085;-94
2021/10/08 10:07:26;;;;;;;21.42;10.78;;;;;;;10.68;79.06;101706.20;1744604;82;21101;-95
2021/10/08 10:09:52;;;;;;;20.17;12.35;;;;;;;10.76;78.58;101708.84;1745492;82;21084;-94
2021/10/08 10:12:23;;;;;;;16.85;11.38;;;;;;;10.84;78.09;101708.91;1745114;82;20990;-96
2021/10/08 10:14:50;;;;;;;17.98;10.88;;;;;;;10.87;77.73;101697.72;1759574;81;21033;-95
2021/10/08 10:17:18;;;;;;;19.27;11.35;;;;;;;10.98;78.16;101711.67;1774929;79;21010;-93
2021/10/08 10:19:47;;;;;;;22.07;12.68;;;;;;;11.04;77.45;101704.28;1748557;81;21080;-95
2021/10/08 10:22:17;;;;;;;22.05;11.48;;;;;;;11.11;77.54;101707.92;1774438;81;21040;-94
2021/10/08 10:24:47;;;;;;;18.77;10.55;;;;;;;11.17;77.81;101702.33;1769922;81;20951;-95
2021/10/08 10:27:15;;;;;;;21.05;11.33;;;;;;;11.23;77.81;101704.64;1753984;82;21050;-94
2021/10/08 10:29:46;;;;;;;17.12;11.68;;;;;;;11.28;78.44;101702.12;1753652;82;21083;-95
2021/10/08 10:32:13;;;;;;;18.20;11.03;;;;;;;11.35;78.06;101703.11;1752342;82;20958;-95
2021/10/08 10:34:40;;;;;;;23.30;11.50;;;;;;;11.39;77.29;101703.36;1748280;82;21140;-94
2021/10/08 10:37:08;;;;;;;19.75;11.20;;;;;;;11.40;77.27;101704.58;1748535;82;21127;-95
2021/10/08 10:39:36;;;;;;;24.65;11.95;;;;;;;11.45;77.13;101709.16;1748589;82;20974;-96
2021/10/08 10:42:13;;;;;;;23.02;11.73;;;;;;;11.53;77.18;101718.45;1697487;82;21551;-96
2021/10/08 10:44:39;;;;;;;19.12;11.25;;;;;;;11.60;76.92;101711.42;1748425;82;21038;-96
2021/10/08 10:47:31;;;;;;;19.32;11.55;;;;;;;11.67;76.26;101711.46;1747877;82;21136;-95
2021/10/08 10:50:24;;;;;;;18.25;11.08;;;;;;;11.72;76.72;101720.48;1747929;82;20986;-95
2021/10/08 10:52:55;;;;;;;24.52;11.40;;;;;;;11.77;76.65;101713.12;1747155;82;21595;-95
2021/10/08 10:55:32;;;;;;;19.77;11.57;;;;;;;11.83;76.51;101710.63;1746956;82;21057;-96
2021/10/08 10:58:04;;;;;;;15.65;10.50;;;;;;;11.88;76.08;101713.44;1748172;82;21025;-96
2021/10/08 11:00:41;;;;;;;18.05;10.80;;;;;;;11.92;76.16;101710.99;1745055;82;21896;-94
2021/10/08 11:03:22;;;;;;;19.67;11.08;;;;;;;11.97;75.74;101703.63;1748338;82;21041;-96
2021/10/08 11:06:10;;;;;;;21.02;10.82;;;;;;;12.04;75.35;101702.81;1748994;80;21143;-95
2021/10/08 11:09:15;;;;;;;17.30;10.90;;;;;;;12.13;75.17;101708.06;1749317;82;21033;-96
2021/10/08 11:11:39;;;;;;;19.40;11.40;;;;;;;12.17;74.97;101707.81;1748123;82;21025;-96
2021/10/08 11:14:20;;;;;;;19.57;11.53;;;;;;;12.21;74.92;101708.49;1753484;80;22186;-95
2021/10/08 11:16:47;;;;;;;19.73;11.43;;;;;;;12.25;75.48;101707.37;1784818;80;21099;-92
2021/10/08 11:19:40;;;;;;;19.65;12.05;;;;;;;12.29;74.67;101714.18;1785520;80;20966;-96
2021/10/08 11:22:07;;;;;;;19.35;11.53;;;;;;;12.32;74.59;101704.74;1784984;80;21555;-94